sensor_id;sensor_type;location;lat;lon;timestamp;P1;durP1;ratioP1;P2;durP2;ratioP2
57155;SDS011;43023;59.928;10.682;2023-06-22T00:02:17;4.72;;;4.20;;
57155;SDS011;43023;59.928;10.682;2023-06-22T00:04:43;5.20;;;3.83;;
57155;SDS011;43023;59.928;10.682;2023-06-22T00:07:10;4.22;;;3.85;;
57155;SDS011;43023;59.928;10.682;2023-06-22T00:09:36;4.35;;;4.05;;
57155;SDS011;43023;59.928;10.682;2023-06-22T00:12:02;4.80;;;3.85;;
57155;SDS011;43023;59.928;10.682;2023-06-22T00:14:28;4.30;;;3.72;;
57155;SDS011;43023;59.928;10.682;2023-06-22T00:16:54;4.22;;;3.83;;
57155;SDS011;43023;59.928;10.682;2023-06-22T00:19:22;5.07;;;4.55;;
57155;SDS011;43023;59.928;10.682;2023-06-22T00:21:49;4.60;;;4.10;;
57155;SDS011;43023;59.928;10.682;2023-06-22T00:24:21;4.72;;;4.32;;
57155;SDS011;43023;59.928;10.682;2023-06-22T00:26:48;4.50;;;4.00;;
57155;SDS011;43023;59.928;10.682;2023-06-22T00:29:14;4.40;;;4.00;;
57155;SDS011;43023;59.928;10.682;2023-06-22T00:31:40;5.00;;;3.85;;
57155;SDS011;43023;59.928;10.682;2023-06-22T00:34:06;7.10;;;3.85;;
57155;SDS011;43023;59.928;10.682;2023-06-22T00:36:33;3.95;;;3.55;;
57155;SDS011;43023;59.928;10.682;2023-06-22T00:38:59;4.45;;;4.05;;
57155;SDS011;43023;59.928;10.682;2023-06-22T00:41:25;4.28;;;3.88;;
57155;SDS011;43023;59.928;10.682;2023-06-22T00:43:53;3.83;;;3.53;;
57155;SDS011;43023;59.928;10.682;2023-06-22T00:46:20;4.57;;;4.18;;
57155;SDS011;43023;59.928;10.682;2023-06-22T00:48:47;4.25;;;3.85;;
57155;SDS011;43023;59.928;10.682;2023-06-22T00:51:13;4.28;;;3.88;;
57155;SDS011;43023;59.928;10.682;2023-06-22T00:53:40;3.88;;;3.58;;
57155;SDS011;43023;59.928;10.682;2023-06-22T00:56:06;3.88;;;3.58;;
57155;SDS011;43023;59.928;10.682;2023-06-22T00:58:34;6.05;;;4.15;;
57155;SDS011;43023;59.928;10.682;2023-06-22T01:01:00;4.13;;;3.72;;
57155;SDS011;43023;59.928;10.682;2023-06-22T01:03:27;4.40;;;4.00;;
57155;SDS011;43023;59.928;10.682;2023-06-22T01:05:54;4.15;;;3.72;;
57155;SDS011;43023;59.928;10.682;2023-06-22T01:08:36;4.30;;;3.58;;
57155;SDS011;43023;59.928;10.682;2023-06-22T01:13:49;3.75;;;3.45;;
57155;SDS011;43023;59.928;10.682;2023-06-22T01:16:27;4.07;;;3.67;;
57155;SDS011;43023;59.928;10.682;2023-06-22T01:18:55;3.88;;;3.42;;
57155;SDS011;43023;59.928;10.682;2023-06-22T01:21:22;5.28;;;4.38;;
57155;SDS011;43023;59.928;10.682;2023-06-22T01:26:19;4.22;;;3.90;;
57155;SDS011;43023;59.928;10.682;2023-06-22T01:28:47;3.88;;;3.58;;
57155;SDS011;43023;59.928;10.682;2023-06-22T01:31:17;5.30;;;4.20;;
57155;SDS011;43023;59.928;10.682;2023-06-22T01:33:56;3.80;;;3.47;;
57155;SDS011;43023;59.928;10.682;2023-06-22T01:36:22;5.57;;;4.28;;
57155;SDS011;43023;59.928;10.682;2023-06-22T01:38:50;3.75;;;3.45;;
57155;SDS011;43023;59.928;10.682;2023-06-22T01:41:16;5.18;;;3.85;;
57155;SDS011;43023;59.928;10.682;2023-06-22T01:43:43;4.18;;;3.88;;
57155;SDS011;43023;59.928;10.682;2023-06-22T01:46:09;4.18;;;3.78;;
57155;SDS011;43023;59.928;10.682;2023-06-22T01:48:36;3.40;;;3.10;;
57155;SDS011;43023;59.928;10.682;2023-06-22T01:51:02;3.22;;;3.03;;
57155;SDS011;43023;59.928;10.682;2023-06-22T01:53:28;4.07;;;3.78;;
57155;SDS011;43023;59.928;10.682;2023-06-22T01:55:55;5.10;;;3.58;;
57155;SDS011;43023;59.928;10.682;2023-06-22T01:58:23;3.97;;;3.47;;
57155;SDS011;43023;59.928;10.682;2023-06-22T02:03:26;5.60;;;3.95;;
57155;SDS011;43023;59.928;10.682;2023-06-22T02:05:54;3.85;;;3.55;;
57155;SDS011;43023;59.928;10.682;2023-06-22T02:08:23;4.90;;;3.58;;
57155;SDS011;43023;59.928;10.682;2023-06-22T02:10:51;4.38;;;3.97;;
57155;SDS011;43023;59.928;10.682;2023-06-22T02:13:17;4.47;;;4.05;;
57155;SDS011;43023;59.928;10.682;2023-06-22T02:15:45;5.20;;;4.13;;
57155;SDS011;43023;59.928;10.682;2023-06-22T02:18:11;3.80;;;3.50;;
57155;SDS011;43023;59.928;10.682;2023-06-22T02:20:38;4.10;;;3.80;;
57155;SDS011;43023;59.928;10.682;2023-06-22T02:23:04;4.32;;;4.03;;
57155;SDS011;43023;59.928;10.682;2023-06-22T02:25:31;4.03;;;3.72;;
57155;SDS011;43023;59.928;10.682;2023-06-22T02:27:57;4.60;;;4.20;;
57155;SDS011;43023;59.928;10.682;2023-06-22T02:30:23;6.25;;;3.97;;
57155;SDS011;43023;59.928;10.682;2023-06-22T02:32:49;4.75;;;4.38;;
57155;SDS011;43023;59.928;10.682;2023-06-22T02:35:27;4.00;;;3.70;;
57155;SDS011;43023;59.928;10.682;2023-06-22T02:38:00;4.80;;;4.30;;
57155;SDS011;43023;59.928;10.682;2023-06-22T02:40:26;4.75;;;4.35;;
57155;SDS011;43023;59.928;10.682;2023-06-22T02:42:52;4.30;;;4.00;;
57155;SDS011;43023;59.928;10.682;2023-06-22T02:45:19;3.92;;;3.60;;
57155;SDS011;43023;59.928;10.682;2023-06-22T02:47:45;4.40;;;4.00;;
57155;SDS011;43023;59.928;10.682;2023-06-22T02:50:12;4.10;;;3.78;;
57155;SDS011;43023;59.928;10.682;2023-06-22T02:52:39;3.58;;;3.30;;
57155;SDS011;43023;59.928;10.682;2023-06-22T02:55:05;4.22;;;3.83;;
57155;SDS011;43023;59.928;10.682;2023-06-22T02:57:33;4.18;;;3.78;;
57155;SDS011;43023;59.928;10.682;2023-06-22T02:59:59;3.88;;;3.58;;
57155;SDS011;43023;59.928;10.682;2023-06-22T03:02:25;4.18;;;3.88;;
57155;SDS011;43023;59.928;10.682;2023-06-22T03:04:52;3.70;;;3.40;;
57155;SDS011;43023;59.928;10.682;2023-06-22T03:07:19;3.95;;;3.65;;
57155;SDS011;43023;59.928;10.682;2023-06-22T03:09:45;4.07;;;3.78;;
57155;SDS011;43023;59.928;10.682;2023-06-22T03:12:11;3.85;;;3.50;;
57155;SDS011;43023;59.928;10.682;2023-06-22T03:14:37;3.80;;;3.50;;
57155;SDS011;43023;59.928;10.682;2023-06-22T03:17:04;3.78;;;3.47;;
57155;SDS011;43023;59.928;10.682;2023-06-22T03:19:31;3.80;;;3.42;;
57155;SDS011;43023;59.928;10.682;2023-06-22T03:21:57;3.58;;;3.28;;
57155;SDS011;43023;59.928;10.682;2023-06-22T03:24:23;6.80;;;3.65;;
57155;SDS011;43023;59.928;10.682;2023-06-22T03:26:50;4.90;;;3.75;;
57155;SDS011;43023;59.928;10.682;2023-06-22T03:29:16;3.47;;;3.17;;
57155;SDS011;43023;59.928;10.682;2023-06-22T03:31:42;3.88;;;3.58;;
57155;SDS011;43023;59.928;10.682;2023-06-22T03:34:08;3.60;;;3.30;;
57155;SDS011;43023;59.928;10.682;2023-06-22T03:36:34;3.67;;;3.38;;
57155;SDS011;43023;59.928;10.682;2023-06-22T03:39:00;3.72;;;3.35;;
57155;SDS011;43023;59.928;10.682;2023-06-22T03:41:26;3.50;;;3.20;;
57155;SDS011;43023;59.928;10.682;2023-06-22T03:43:52;3.75;;;3.45;;
57155;SDS011;43023;59.928;10.682;2023-06-22T03:46:18;3.78;;;3.22;;
57155;SDS011;43023;59.928;10.682;2023-06-22T03:48:45;3.53;;;3.22;;
57155;SDS011;43023;59.928;10.682;2023-06-22T03:51:11;3.13;;;2.92;;
57155;SDS011;43023;59.928;10.682;2023-06-22T03:53:37;3.35;;;3.00;;
57155;SDS011;43023;59.928;10.682;2023-06-22T03:56:03;2.97;;;2.60;;
57155;SDS011;43023;59.928;10.682;2023-06-22T03:58:29;2.95;;;2.75;;
57155;SDS011;43023;59.928;10.682;2023-06-22T04:00:57;3.70;;;3.40;;
57155;SDS011;43023;59.928;10.682;2023-06-22T04:03:25;4.15;;;3.85;;
57155;SDS011;43023;59.928;10.682;2023-06-22T04:05:51;3.55;;;3.25;;
57155;SDS011;43023;59.928;10.682;2023-06-22T04:08:17;3.47;;;3.20;;
57155;SDS011;43023;59.928;10.682;2023-06-22T04:10:43;3.85;;;3.45;;
57155;SDS011;43023;59.928;10.682;2023-06-22T04:13:10;4.13;;;3.38;;
57155;SDS011;43023;59.928;10.682;2023-06-22T04:15:36;3.25;;;3.05;;
57155;SDS011;43023;59.928;10.682;2023-06-22T04:18:02;3.40;;;3.10;;
57155;SDS011;43023;59.928;10.682;2023-06-22T04:20:28;3.83;;;3.53;;
57155;SDS011;43023;59.928;10.682;2023-06-22T04:22:54;3.72;;;3.42;;
57155;SDS011;43023;59.928;10.682;2023-06-22T04:25:21;3.50;;;3.20;;
57155;SDS011;43023;59.928;10.682;2023-06-22T04:27:48;4.47;;;3.38;;
57155;SDS011;43023;59.928;10.682;2023-06-22T04:30:14;3.63;;;3.33;;
57155;SDS011;43023;59.928;10.682;2023-06-22T04:32:41;3.95;;;3.58;;
57155;SDS011;43023;59.928;10.682;2023-06-22T04:35:07;3.60;;;3.30;;
57155;SDS011;43023;59.928;10.682;2023-06-22T04:37:33;3.13;;;2.90;;
57155;SDS011;43023;59.928;10.682;2023-06-22T04:39:59;2.83;;;2.65;;
57155;SDS011;43023;59.928;10.682;2023-06-22T04:42:26;3.42;;;3.13;;
57155;SDS011;43023;59.928;10.682;2023-06-22T04:44:52;3.42;;;3.13;;
57155;SDS011;43023;59.928;10.682;2023-06-22T04:47:18;3.10;;;2.88;;
57155;SDS011;43023;59.928;10.682;2023-06-22T04:49:44;3.40;;;3.10;;
57155;SDS011;43023;59.928;10.682;2023-06-22T04:52:11;3.30;;;3.00;;
57155;SDS011;43023;59.928;10.682;2023-06-22T04:54:38;3.80;;;3.42;;
57155;SDS011;43023;59.928;10.682;2023-06-22T04:57:06;4.22;;;3.83;;
57155;SDS011;43023;59.928;10.682;2023-06-22T04:59:35;3.33;;;3.08;;
57155;SDS011;43023;59.928;10.682;2023-06-22T05:02:04;4.82;;;3.05;;
57155;SDS011;43023;59.928;10.682;2023-06-22T05:04:31;3.95;;;3.00;;
57155;SDS011;43023;59.928;10.682;2023-06-22T05:06:57;3.55;;;3.25;;
57155;SDS011;43023;59.928;10.682;2023-06-22T05:09:24;4.78;;;3.25;;
57155;SDS011;43023;59.928;10.682;2023-06-22T05:11:50;4.28;;;3.28;;
57155;SDS011;43023;59.928;10.682;2023-06-22T05:14:16;6.50;;;3.50;;
57155;SDS011;43023;59.928;10.682;2023-06-22T05:16:43;6.38;;;4.15;;
57155;SDS011;43023;59.928;10.682;2023-06-22T05:19:10;6.72;;;3.33;;
57155;SDS011;43023;59.928;10.682;2023-06-22T05:21:36;6.43;;;3.30;;
57155;SDS011;43023;59.928;10.682;2023-06-22T05:24:02;3.78;;;3.03;;
57155;SDS011;43023;59.928;10.682;2023-06-22T05:26:29;6.75;;;3.35;;
57155;SDS011;43023;59.928;10.682;2023-06-22T05:28:56;3.80;;;2.67;;
57155;SDS011;43023;59.928;10.682;2023-06-22T05:31:22;3.10;;;2.80;;
57155;SDS011;43023;59.928;10.682;2023-06-22T05:33:50;3.20;;;2.90;;
57155;SDS011;43023;59.928;10.682;2023-06-22T05:36:16;2.85;;;2.60;;
57155;SDS011;43023;59.928;10.682;2023-06-22T05:38:43;4.45;;;2.92;;
57155;SDS011;43023;59.928;10.682;2023-06-22T05:41:09;5.00;;;3.15;;
57155;SDS011;43023;59.928;10.682;2023-06-22T05:43:35;6.25;;;3.70;;
57155;SDS011;43023;59.928;10.682;2023-06-22T05:46:02;5.13;;;3.38;;
57155;SDS011;43023;59.928;10.682;2023-06-22T05:48:28;6.85;;;2.65;;
57155;SDS011;43023;59.928;10.682;2023-06-22T05:50:54;5.20;;;2.40;;
57155;SDS011;43023;59.928;10.682;2023-06-22T05:53:20;4.20;;;3.08;;
57155;SDS011;43023;59.928;10.682;2023-06-22T05:55:46;7.95;;;3.15;;
57155;SDS011;43023;59.928;10.682;2023-06-22T05:58:12;4.38;;;3.08;;
57155;SDS011;43023;59.928;10.682;2023-06-22T06:00:38;4.45;;;2.75;;
57155;SDS011;43023;59.928;10.682;2023-06-22T06:03:04;4.30;;;2.83;;
57155;SDS011;43023;59.928;10.682;2023-06-22T06:05:31;9.13;;;2.90;;
57155;SDS011;43023;59.928;10.682;2023-06-22T06:07:58;8.25;;;2.75;;
57155;SDS011;43023;59.928;10.682;2023-06-22T06:10:24;3.75;;;2.40;;
57155;SDS011;43023;59.928;10.682;2023-06-22T06:12:50;2.45;;;2.20;;
57155;SDS011;43023;59.928;10.682;2023-06-22T06:15:16;3.30;;;2.65;;
57155;SDS011;43023;59.928;10.682;2023-06-22T06:17:49;5.97;;;2.75;;
57155;SDS011;43023;59.928;10.682;2023-06-22T06:20:17;2.83;;;2.17;;
57155;SDS011;43023;59.928;10.682;2023-06-22T06:22:43;5.35;;;2.63;;
57155;SDS011;43023;59.928;10.682;2023-06-22T06:25:09;3.28;;;2.45;;
57155;SDS011;43023;59.928;10.682;2023-06-22T06:27:44;6.47;;;2.47;;
57155;SDS011;43023;59.928;10.682;2023-06-22T06:30:11;2.45;;;2.10;;
57155;SDS011;43023;59.928;10.682;2023-06-22T06:32:38;4.35;;;2.08;;
57155;SDS011;43023;59.928;10.682;2023-06-22T06:35:07;4.18;;;2.35;;
57155;SDS011;43023;59.928;10.682;2023-06-22T06:37:35;2.20;;;2.00;;
57155;SDS011;43023;59.928;10.682;2023-06-22T06:40:03;2.72;;;2.00;;
57155;SDS011;43023;59.928;10.682;2023-06-22T06:42:30;4.18;;;1.98;;
57155;SDS011;43023;59.928;10.682;2023-06-22T06:44:56;3.72;;;2.67;;
57155;SDS011;43023;59.928;10.682;2023-06-22T06:47:22;4.93;;;2.40;;
57155;SDS011;43023;59.928;10.682;2023-06-22T06:49:48;8.80;;;2.22;;
57155;SDS011;43023;59.928;10.682;2023-06-22T06:52:14;2.90;;;2.30;;
57155;SDS011;43023;59.928;10.682;2023-06-22T06:54:40;3.25;;;2.10;;
57155;SDS011;43023;59.928;10.682;2023-06-22T06:57:07;2.42;;;1.90;;
57155;SDS011;43023;59.928;10.682;2023-06-22T06:59:35;3.03;;;2.00;;
57155;SDS011;43023;59.928;10.682;2023-06-22T07:02:01;3.25;;;2.17;;
57155;SDS011;43023;59.928;10.682;2023-06-22T07:04:27;2.10;;;1.90;;
57155;SDS011;43023;59.928;10.682;2023-06-22T07:06:54;6.13;;;2.20;;
57155;SDS011;43023;59.928;10.682;2023-06-22T07:09:20;3.70;;;1.75;;
57155;SDS011;43023;59.928;10.682;2023-06-22T07:11:46;6.13;;;1.80;;
57155;SDS011;43023;59.928;10.682;2023-06-22T07:14:12;4.78;;;1.92;;
57155;SDS011;43023;59.928;10.682;2023-06-22T07:16:38;3.33;;;1.80;;
57155;SDS011;43023;59.928;10.682;2023-06-22T07:19:04;3.47;;;1.77;;
57155;SDS011;43023;59.928;10.682;2023-06-22T07:21:30;2.25;;;1.70;;
57155;SDS011;43023;59.928;10.682;2023-06-22T07:23:56;2.33;;;1.95;;
57155;SDS011;43023;59.928;10.682;2023-06-22T07:26:22;1.95;;;1.75;;
57155;SDS011;43023;59.928;10.682;2023-06-22T07:28:48;1.83;;;1.73;;
57155;SDS011;43023;59.928;10.682;2023-06-22T07:31:15;2.20;;;1.60;;
57155;SDS011;43023;59.928;10.682;2023-06-22T07:33:41;2.17;;;2.00;;
57155;SDS011;43023;59.928;10.682;2023-06-22T07:36:07;1.98;;;1.83;;
57155;SDS011;43023;59.928;10.682;2023-06-22T07:38:34;1.88;;;1.42;;
57155;SDS011;43023;59.928;10.682;2023-06-22T07:41:00;1.95;;;1.80;;
57155;SDS011;43023;59.928;10.682;2023-06-22T07:43:27;2.13;;;1.67;;
57155;SDS011;43023;59.928;10.682;2023-06-22T07:45:55;2.85;;;1.55;;
57155;SDS011;43023;59.928;10.682;2023-06-22T07:48:21;2.00;;;1.67;;
57155;SDS011;43023;59.928;10.682;2023-06-22T07:50:47;1.85;;;1.30;;
57155;SDS011;43023;59.928;10.682;2023-06-22T07:53:13;7.78;;;1.63;;
57155;SDS011;43023;59.928;10.682;2023-06-22T07:55:40;5.20;;;1.50;;
57155;SDS011;43023;59.928;10.682;2023-06-22T07:58:06;2.65;;;1.42;;
57155;SDS011;43023;59.928;10.682;2023-06-22T08:00:33;3.03;;;1.70;;
57155;SDS011;43023;59.928;10.682;2023-06-22T08:02:59;2.20;;;1.60;;
57155;SDS011;43023;59.928;10.682;2023-06-22T08:05:28;2.33;;;1.50;;
57155;SDS011;43023;59.928;10.682;2023-06-22T08:07:55;1.35;;;1.25;;
57155;SDS011;43023;59.928;10.682;2023-06-22T08:10:21;1.95;;;1.80;;
57155;SDS011;43023;59.928;10.682;2023-06-22T08:12:47;1.20;;;1.17;;
57155;SDS011;43023;59.928;10.682;2023-06-22T08:15:13;1.75;;;1.58;;
57155;SDS011;43023;59.928;10.682;2023-06-22T08:17:39;2.00;;;1.65;;
57155;SDS011;43023;59.928;10.682;2023-06-22T08:20:06;1.48;;;1.40;;
57155;SDS011;43023;59.928;10.682;2023-06-22T08:22:37;1.45;;;1.20;;
57155;SDS011;43023;59.928;10.682;2023-06-22T08:25:03;1.67;;;1.25;;
57155;SDS011;43023;59.928;10.682;2023-06-22T08:27:29;1.70;;;1.60;;
57155;SDS011;43023;59.928;10.682;2023-06-22T08:29:59;1.58;;;1.48;;
57155;SDS011;43023;59.928;10.682;2023-06-22T08:32:26;1.58;;;1.40;;
57155;SDS011;43023;59.928;10.682;2023-06-22T08:34:53;1.70;;;1.60;;
57155;SDS011;43023;59.928;10.682;2023-06-22T08:37:20;3.00;;;1.55;;
57155;SDS011;43023;59.928;10.682;2023-06-22T08:39:48;1.30;;;1.20;;
57155;SDS011;43023;59.928;10.682;2023-06-22T08:42:15;1.40;;;1.30;;
57155;SDS011;43023;59.928;10.682;2023-06-22T08:44:41;1.50;;;1.40;;
57155;SDS011;43023;59.928;10.682;2023-06-22T08:47:07;2.45;;;1.40;;
57155;SDS011;43023;59.928;10.682;2023-06-22T08:49:33;1.60;;;1.50;;
57155;SDS011;43023;59.928;10.682;2023-06-22T08:51:59;1.55;;;1.30;;
57155;SDS011;43023;59.928;10.682;2023-06-22T08:54:25;1.42;;;1.30;;
57155;SDS011;43023;59.928;10.682;2023-06-22T08:56:52;0.88;;;0.88;;
57155;SDS011;43023;59.928;10.682;2023-06-22T08:59:18;1.30;;;1.20;;
57155;SDS011;43023;59.928;10.682;2023-06-22T09:01:44;1.27;;;1.23;;
57155;SDS011;43023;59.928;10.682;2023-06-22T09:04:13;1.17;;;1.00;;
57155;SDS011;43023;59.928;10.682;2023-06-22T09:06:40;1.88;;;1.20;;
57155;SDS011;43023;59.928;10.682;2023-06-22T09:09:10;1.17;;;1.08;;
57155;SDS011;43023;59.928;10.682;2023-06-22T09:11:36;1.00;;;0.93;;
57155;SDS011;43023;59.928;10.682;2023-06-22T09:14:02;1.90;;;1.10;;
57155;SDS011;43023;59.928;10.682;2023-06-22T09:16:29;0.90;;;0.90;;
57155;SDS011;43023;59.928;10.682;2023-06-22T09:18:55;1.67;;;1.48;;
57155;SDS011;43023;59.928;10.682;2023-06-22T09:21:21;1.05;;;1.05;;
57155;SDS011;43023;59.928;10.682;2023-06-22T09:23:47;1.10;;;1.00;;
57155;SDS011;43023;59.928;10.682;2023-06-22T09:26:19;1.50;;;1.40;;
57155;SDS011;43023;59.928;10.682;2023-06-22T09:28:45;1.05;;;1.00;;
57155;SDS011;43023;59.928;10.682;2023-06-22T09:31:12;1.23;;;1.15;;
57155;SDS011;43023;59.928;10.682;2023-06-22T09:33:39;2.70;;;1.00;;
57155;SDS011;43023;59.928;10.682;2023-06-22T09:36:06;0.80;;;0.65;;
57155;SDS011;43023;59.928;10.682;2023-06-22T09:38:38;1.65;;;0.98;;
57155;SDS011;43023;59.928;10.682;2023-06-22T09:41:04;1.95;;;0.98;;
57155;SDS011;43023;59.928;10.682;2023-06-22T09:43:32;4.82;;;1.23;;
57155;SDS011;43023;59.928;10.682;2023-06-22T09:46:01;2.17;;;0.80;;
57155;SDS011;43023;59.928;10.682;2023-06-22T09:48:28;0.95;;;0.95;;
57155;SDS011;43023;59.928;10.682;2023-06-22T09:50:57;1.95;;;1.50;;
57155;SDS011;43023;59.928;10.682;2023-06-22T09:53:23;2.25;;;0.95;;
57155;SDS011;43023;59.928;10.682;2023-06-22T09:55:49;1.05;;;0.95;;
57155;SDS011;43023;59.928;10.682;2023-06-22T09:58:15;1.00;;;1.00;;
57155;SDS011;43023;59.928;10.682;2023-06-22T10:00:41;1.00;;;1.00;;
57155;SDS011;43023;59.928;10.682;2023-06-22T10:03:07;0.90;;;0.90;;
57155;SDS011;43023;59.928;10.682;2023-06-22T10:05:34;0.77;;;0.77;;
57155;SDS011;43023;59.928;10.682;2023-06-22T10:08:00;0.60;;;0.60;;
57155;SDS011;43023;59.928;10.682;2023-06-22T10:10:26;1.08;;;0.95;;
57155;SDS011;43023;59.928;10.682;2023-06-22T10:12:56;0.85;;;0.85;;
57155;SDS011;43023;59.928;10.682;2023-06-22T10:15:22;0.75;;;0.75;;
57155;SDS011;43023;59.928;10.682;2023-06-22T10:17:48;1.20;;;1.10;;
57155;SDS011;43023;59.928;10.682;2023-06-22T10:20:15;0.68;;;0.68;;
57155;SDS011;43023;59.928;10.682;2023-06-22T10:22:44;0.80;;;0.80;;
57155;SDS011;43023;59.928;10.682;2023-06-22T10:25:11;2.95;;;1.30;;
57155;SDS011;43023;59.928;10.682;2023-06-22T10:27:37;0.77;;;0.77;;
57155;SDS011;43023;59.928;10.682;2023-06-22T10:30:05;0.82;;;0.82;;
57155;SDS011;43023;59.928;10.682;2023-06-22T10:32:31;0.77;;;0.75;;
57155;SDS011;43023;59.928;10.682;2023-06-22T10:34:58;0.85;;;0.85;;
57155;SDS011;43023;59.928;10.682;2023-06-22T10:37:24;0.70;;;0.70;;
57155;SDS011;43023;59.928;10.682;2023-06-22T10:39:50;0.80;;;0.80;;
57155;SDS011;43023;59.928;10.682;2023-06-22T10:42:16;3.22;;;1.10;;
57155;SDS011;43023;59.928;10.682;2023-06-22T10:44:42;1.60;;;1.05;;
57155;SDS011;43023;59.928;10.682;2023-06-22T10:47:09;1.10;;;1.00;;
57155;SDS011;43023;59.928;10.682;2023-06-22T10:49:37;0.60;;;0.60;;
57155;SDS011;43023;59.928;10.682;2023-06-22T10:52:03;1.27;;;1.17;;
57155;SDS011;43023;59.928;10.682;2023-06-22T10:54:30;0.80;;;0.80;;
57155;SDS011;43023;59.928;10.682;2023-06-22T10:56:56;0.80;;;0.73;;
57155;SDS011;43023;59.928;10.682;2023-06-22T10:59:22;0.68;;;0.68;;
57155;SDS011;43023;59.928;10.682;2023-06-22T11:01:48;0.70;;;0.70;;
57155;SDS011;43023;59.928;10.682;2023-06-22T11:04:14;1.02;;;0.57;;
57155;SDS011;43023;59.928;10.682;2023-06-22T11:06:42;0.60;;;0.60;;
57155;SDS011;43023;59.928;10.682;2023-06-22T11:09:08;0.50;;;0.50;;
57155;SDS011;43023;59.928;10.682;2023-06-22T11:11:34;0.68;;;0.68;;
57155;SDS011;43023;59.928;10.682;2023-06-22T11:14:00;1.02;;;0.63;;
57155;SDS011;43023;59.928;10.682;2023-06-22T11:16:27;0.73;;;0.73;;
57155;SDS011;43023;59.928;10.682;2023-06-22T11:18:53;0.52;;;0.52;;
57155;SDS011;43023;59.928;10.682;2023-06-22T11:21:19;0.93;;;0.80;;
57155;SDS011;43023;59.928;10.682;2023-06-22T11:23:45;0.50;;;0.50;;
57155;SDS011;43023;59.928;10.682;2023-06-22T11:26:11;0.70;;;0.70;;
57155;SDS011;43023;59.928;10.682;2023-06-22T11:28:37;0.50;;;0.50;;
57155;SDS011;43023;59.928;10.682;2023-06-22T11:31:04;1.75;;;0.50;;
57155;SDS011;43023;59.928;10.682;2023-06-22T11:33:32;0.60;;;0.60;;
57155;SDS011;43023;59.928;10.682;2023-06-22T11:35:58;2.35;;;0.65;;
57155;SDS011;43023;59.928;10.682;2023-06-22T11:38:25;1.00;;;0.60;;
57155;SDS011;43023;59.928;10.682;2023-06-22T11:40:51;2.03;;;0.70;;
57155;SDS011;43023;59.928;10.682;2023-06-22T11:43:17;2.60;;;0.85;;
57155;SDS011;43023;59.928;10.682;2023-06-22T11:45:43;0.60;;;0.60;;
57155;SDS011;43023;59.928;10.682;2023-06-22T11:48:09;0.68;;;0.68;;
57155;SDS011;43023;59.928;10.682;2023-06-22T11:50:35;1.42;;;0.60;;
57155;SDS011;43023;59.928;10.682;2023-06-22T11:53:02;1.95;;;0.50;;
57155;SDS011;43023;59.928;10.682;2023-06-22T11:55:29;0.57;;;0.43;;
57155;SDS011;43023;59.928;10.682;2023-06-22T11:57:56;0.60;;;0.60;;
57155;SDS011;43023;59.928;10.682;2023-06-22T12:00:25;0.50;;;0.40;;
57155;SDS011;43023;59.928;10.682;2023-06-22T12:02:51;0.80;;;0.60;;
57155;SDS011;43023;59.928;10.682;2023-06-22T12:05:20;1.48;;;0.43;;
57155;SDS011;43023;59.928;10.682;2023-06-22T12:07:47;0.65;;;0.57;;
57155;SDS011;43023;59.928;10.682;2023-06-22T12:10:14;0.52;;;0.52;;
57155;SDS011;43023;59.928;10.682;2023-06-22T12:12:40;0.75;;;0.60;;
57155;SDS011;43023;59.928;10.682;2023-06-22T12:15:08;0.32;;;0.32;;
57155;SDS011;43023;59.928;10.682;2023-06-22T12:17:35;0.50;;;0.50;;
57155;SDS011;43023;59.928;10.682;2023-06-22T12:20:01;0.63;;;0.63;;
57155;SDS011;43023;59.928;10.682;2023-06-22T12:22:30;0.60;;;0.60;;
57155;SDS011;43023;59.928;10.682;2023-06-22T12:24:56;0.40;;;0.40;;
57155;SDS011;43023;59.928;10.682;2023-06-22T12:27:22;0.50;;;0.50;;
57155;SDS011;43023;59.928;10.682;2023-06-22T12:29:48;2.05;;;0.90;;
57155;SDS011;43023;59.928;10.682;2023-06-22T12:32:14;0.40;;;0.40;;
57155;SDS011;43023;59.928;10.682;2023-06-22T12:34:41;0.40;;;0.40;;
57155;SDS011;43023;59.928;10.682;2023-06-22T12:37:08;0.50;;;0.50;;
57155;SDS011;43023;59.928;10.682;2023-06-22T12:39:34;1.85;;;0.52;;
57155;SDS011;43023;59.928;10.682;2023-06-22T12:42:00;0.60;;;0.60;;
57155;SDS011;43023;59.928;10.682;2023-06-22T12:44:26;0.30;;;0.30;;
57155;SDS011;43023;59.928;10.682;2023-06-22T12:46:52;0.30;;;0.30;;
57155;SDS011;43023;59.928;10.682;2023-06-22T12:49:18;0.30;;;0.30;;
57155;SDS011;43023;59.928;10.682;2023-06-22T12:51:45;0.65;;;0.60;;
57155;SDS011;43023;59.928;10.682;2023-06-22T12:54:11;0.50;;;0.50;;
57155;SDS011;43023;59.928;10.682;2023-06-22T12:56:37;0.47;;;0.40;;
57155;SDS011;43023;59.928;10.682;2023-06-22T12:59:04;0.40;;;0.40;;
57155;SDS011;43023;59.928;10.682;2023-06-22T13:01:31;0.40;;;0.40;;
57155;SDS011;43023;59.928;10.682;2023-06-22T13:04:00;0.60;;;0.60;;
57155;SDS011;43023;59.928;10.682;2023-06-22T13:06:26;0.65;;;0.30;;
57155;SDS011;43023;59.928;10.682;2023-06-22T13:08:52;1.27;;;0.47;;
57155;SDS011;43023;59.928;10.682;2023-06-22T13:11:18;0.60;;;0.60;;
57155;SDS011;43023;59.928;10.682;2023-06-22T13:13:44;0.63;;;0.63;;
57155;SDS011;43023;59.928;10.682;2023-06-22T13:16:11;0.40;;;0.40;;
57155;SDS011;43023;59.928;10.682;2023-06-22T13:18:37;0.50;;;0.50;;
57155;SDS011;43023;59.928;10.682;2023-06-22T13:21:03;0.50;;;0.50;;
57155;SDS011;43023;59.928;10.682;2023-06-22T13:23:29;0.57;;;0.40;;
57155;SDS011;43023;59.928;10.682;2023-06-22T13:25:56;0.50;;;0.50;;
57155;SDS011;43023;59.928;10.682;2023-06-22T13:28:22;0.25;;;0.25;;
57155;SDS011;43023;59.928;10.682;2023-06-22T13:30:48;0.52;;;0.50;;
57155;SDS011;43023;59.928;10.682;2023-06-22T13:33:14;0.85;;;0.30;;
57155;SDS011;43023;59.928;10.682;2023-06-22T13:35:40;0.47;;;0.30;;
57155;SDS011;43023;59.928;10.682;2023-06-22T13:38:09;1.48;;;0.55;;
57155;SDS011;43023;59.928;10.682;2023-06-22T13:40:36;0.73;;;0.52;;
57155;SDS011;43023;59.928;10.682;2023-06-22T13:43:03;0.40;;;0.40;;
57155;SDS011;43023;59.928;10.682;2023-06-22T13:45:29;0.60;;;0.60;;
57155;SDS011;43023;59.928;10.682;2023-06-22T13:47:55;0.40;;;0.40;;
57155;SDS011;43023;59.928;10.682;2023-06-22T13:50:21;0.50;;;0.50;;
57155;SDS011;43023;59.928;10.682;2023-06-22T13:52:47;0.40;;;0.40;;
57155;SDS011;43023;59.928;10.682;2023-06-22T13:55:13;0.77;;;0.43;;
57155;SDS011;43023;59.928;10.682;2023-06-22T13:57:40;0.47;;;0.47;;
57155;SDS011;43023;59.928;10.682;2023-06-22T14:00:07;0.60;;;0.60;;
57155;SDS011;43023;59.928;10.682;2023-06-22T14:02:37;4.35;;;0.73;;
57155;SDS011;43023;59.928;10.682;2023-06-22T14:05:04;0.98;;;0.60;;
57155;SDS011;43023;59.928;10.682;2023-06-22T14:07:31;0.55;;;0.55;;
57155;SDS011;43023;59.928;10.682;2023-06-22T14:09:57;0.50;;;0.50;;
57155;SDS011;43023;59.928;10.682;2023-06-22T14:12:23;0.35;;;0.35;;
57155;SDS011;43023;59.928;10.682;2023-06-22T14:14:49;0.52;;;0.50;;
57155;SDS011;43023;59.928;10.682;2023-06-22T14:17:16;1.05;;;0.75;;
57155;SDS011;43023;59.928;10.682;2023-06-22T14:19:42;0.30;;;0.30;;
57155;SDS011;43023;59.928;10.682;2023-06-22T14:22:08;0.68;;;0.68;;
57155;SDS011;43023;59.928;10.682;2023-06-22T14:24:34;0.90;;;0.70;;
57155;SDS011;43023;59.928;10.682;2023-06-22T14:27:00;0.70;;;0.70;;
57155;SDS011;43023;59.928;10.682;2023-06-22T14:29:28;0.60;;;0.60;;
57155;SDS011;43023;59.928;10.682;2023-06-22T14:31:54;0.30;;;0.30;;
57155;SDS011;43023;59.928;10.682;2023-06-22T14:34:20;0.88;;;0.65;;
57155;SDS011;43023;59.928;10.682;2023-06-22T14:36:46;0.73;;;0.73;;
57155;SDS011;43023;59.928;10.682;2023-06-22T14:39:12;2.70;;;1.70;;